Time;durP1;ratioP1;P1;durP2;ratioP2;P2;SDS_P1;SDS_P2;PMS_P1;PMS_P2;Temp;Humidity;BMP_temperature;BMP_pressure;BME280_temperature;BME280_humidity;BME280_pressure;Samples;Min_cycle;Max_cycle;Signal;HPM_P1;HPM_P2
2023/08/30 00:02:18;;;;;;;58.25;10.40;;;17.60;93.20;;;;;;5007311;28;20165;-60
2023/08/30 00:04:43;;;;;;;57.42;11.23;;;17.60;93.20;;;;;;4990505;28;20030;-60
2023/08/30 00:07:10;;;;;;;67.18;10.50;;;17.60;93.20;;;;;;5006548;28;20065;-60
2023/08/30 00:09:36;;;;;;;49.97;9.90;;;17.60;93.30;;;;;;5006291;28;20026;-60
2023/08/30 00:12:02;;;;;;;61.63;9.85;;;17.50;93.30;;;;;;5008380;28;20046;-60
2023/08/30 00:14:28;;;;;;;46.20;9.00;;;17.50;93.20;;;;;;5006962;28;20034;-60
2023/08/30 00:16:53;;;;;;;44.33;9.15;;;17.50;93.30;;;;;;5008106;28;20057;-60
2023/08/30 00:19:19;;;;;;;37.33;9.10;;;17.50;93.30;;;;;;5006634;28;20037;-60
2023/08/30 00:21:44;;;;;;;43.72;8.35;;;17.50;93.30;;;;;;4990630;28;20463;-60
2023/08/30 00:24:10;;;;;;;51.78;8.70;;;17.50;93.30;;;;;;5007796;28;20066;-60
2023/08/30 00:26:35;;;;;;;36.03;8.70;;;17.50;93.30;;;;;;5006725;28;20041;-60
2023/08/30 00:29:01;;;;;;;37.80;8.40;;;17.50;93.30;;;;;;5006593;28;20037;-60
2023/08/30 00:31:26;;;;;;;36.95;8.23;;;17.50;93.40;;;;;;5008132;28;20026;-60
2023/08/30 00:33:52;;;;;;;36.15;8.40;;;17.50;93.40;;;;;;5006700;28;20101;-60
2023/08/30 00:36:18;;;;;;;38.55;8.40;;;17.40;93.30;;;;;;5006441;28;20061;-60
2023/08/30 00:38:44;;;;;;;34.65;7.28;;;17.40;93.40;;;;;;5006279;28;20031;-60
2023/08/30 00:41:09;;;;;;;38.20;7.38;;;17.40;93.40;;;;;;5006589;28;20080;-60
2023/08/30 00:43:35;;;;;;;37.97;6.75;;;17.40;93.40;;;;;;5007709;28;20544;-60
2023/08/30 00:46:00;;;;;;;30.23;7.13;;;17.40;93.50;;;;;;5006232;28;20090;-60
2023/08/30 00:48:26;;;;;;;29.00;6.78;;;17.30;93.40;;;;;;5007761;28;20026;-60
2023/08/30 00:50:52;;;;;;;26.17;6.75;;;17.30;93.50;;;;;;5006008;28;20050;-60
2023/08/30 00:53:17;;;;;;;27.48;7.30;;;17.30;93.40;;;;;;5006300;28;20052;-60
2023/08/30 00:55:43;;;;;;;28.80;6.93;;;17.30;93.50;;;;;;5006192;28;20105;-60
2023/08/30 00:58:09;;;;;;;31.38;6.55;;;17.30;93.50;;;;;;5006334;28;20035;-60
2023/08/30 01:00:35;;;;;;;27.60;6.15;;;17.30;93.50;;;;;;5006192;28;20185;-60
2023/08/30 01:03:01;;;;;;;38.03;6.90;;;17.30;93.50;;;;;;5006120;28;20137;-60
2023/08/30 01:05:27;;;;;;;25.17;6.22;;;17.30;93.50;;;;;;5007345;28;20026;-60
2023/08/30 01:07:53;;;;;;;23.77;5.30;;;17.30;93.50;;;;;;5006089;28;20157;-60
2023/08/30 01:10:19;;;;;;;23.73;5.30;;;17.30;93.50;;;;;;5005496;28;20034;-60
2023/08/30 01:12:49;;;;;;;18.65;5.43;;;17.20;93.50;;;;;;5005867;28;20022;-60
2023/08/30 01:15:21;;;;;;;27.38;5.70;;;17.20;93.50;;;;;;5005815;28;20069;-60
2023/08/30 01:17:54;;;;;;;21.13;5.80;;;17.20;93.50;;;;;;5005591;28;20057;-60
2023/08/30 01:20:22;;;;;;;21.10;5.47;;;17.20;93.50;;;;;;5005401;28;20121;-60
2023/08/30 01:23:12;;;;;;;20.75;5.63;;;17.20;93.50;;;;;;5005624;28;20050;-60
2023/08/30 01:26:07;;;;;;;20.58;4.90;;;17.20;93.50;;;;;;5006993;28;20110;-60
2023/08/30 01:28:33;;;;;;;19.83;4.80;;;17.20;93.50;;;;;;5020038;28;20094;-60
2023/08/30 01:30:58;;;;;;;23.05;4.45;;;17.20;93.50;;;;;;4989099;28;20045;-60
2023/08/30 01:33:27;;;;;;;23.17;4.28;;;17.20;93.60;;;;;;5005482;28;20030;-60
2023/08/30 01:35:56;;;;;;;16.90;4.78;;;17.20;93.60;;;;;;5005306;28;20039;-60
2023/08/30 01:38:21;;;;;;;19.23;4.10;;;17.20;93.60;;;;;;5005379;28;20030;-60
2023/08/30 01:40:47;;;;;;;21.85;3.83;;;17.20;93.60;;;;;;5005274;28;20060;-60
2023/08/30 01:43:13;;;;;;;15.05;3.53;;;17.10;93.60;;;;;;4988953;28;20037;-60
2023/08/30 01:45:40;;;;;;;11.45;3.58;;;17.10;93.70;;;;;;5005091;28;20042;-60
2023/08/30 01:48:07;;;;;;;22.75;4.05;;;17.10;93.70;;;;;;5005213;28;20542;-60
2023/08/30 01:50:32;;;;;;;18.63;3.72;;;17.10;93.70;;;;;;5005026;28;20125;-60
2023/08/30 01:52:59;;;;;;;16.38;4.13;;;17.10;93.80;;;;;;5005184;28;20022;-60
2023/08/30 01:55:24;;;;;;;20.00;4.45;;;17.10;93.70;;;;;;5004921;28;20030;-60
2023/08/30 01:57:50;;;;;;;18.50;4.10;;;17.10;93.70;;;;;;5004975;28;20034;-60
2023/08/30 02:00:15;;;;;;;21.10;3.72;;;17.10;93.70;;;;;;5005085;28;20035;-60
2023/08/30 02:02:41;;;;;;;20.17;3.88;;;17.10;93.70;;;;;;4988737;28;20034;-60
2023/08/30 02:05:07;;;;;;;14.55;3.30;;;17.10;93.70;;;;;;5006164;28;20030;-60
2023/08/30 02:07:57;;;;;;;13.65;3.17;;;17.10;93.80;;;;;;5006184;28;20407;-60
2023/08/30 02:10:44;;;;;;;14.77;3.75;;;17.10;93.80;;;;;;5004797;28;20069;-60
2023/08/30 02:13:09;;;;;;;11.52;3.00;;;17.00;93.80;;;;;;5004898;28;20026;-59
2023/08/30 02:15:35;;;;;;;13.45;3.58;;;17.10;93.80;;;;;;5004912;28;20034;-60
2023/08/30 02:18:00;;;;;;;15.07;3.45;;;17.10;93.80;;;;;;5005001;28;20040;-60
2023/08/30 02:20:26;;;;;;;9.80;3.25;;;17.10;93.90;;;;;;5004941;28;20042;-60
2023/08/30 02:22:51;;;;;;;15.45;3.03;;;17.00;93.80;;;;;;5006549;28;20049;-64
2023/08/30 02:25:17;;;;;;;15.23;3.35;;;17.00;93.80;;;;;;5006277;28;20511;-60
2023/08/30 02:27:43;;;;;;;11.38;2.70;;;17.00;93.80;;;;;;5006114;28;20026;-60
2023/08/30 02:30:08;;;;;;;9.23;3.13;;;17.00;93.80;;;;;;5004267;28;20037;-60
2023/08/30 02:32:34;;;;;;;13.55;3.92;;;17.00;93.90;;;;;;5004025;28;20027;-60
2023/08/30 02:35:00;;;;;;;11.50;3.65;;;17.00;93.90;;;;;;5004384;28;20057;-60
2023/08/30 02:37:25;;;;;;;10.77;3.08;;;17.00;93.90;;;;;;5004266;28;20058;-60
2023/08/30 02:39:51;;;;;;;6.85;3.25;;;16.90;93.90;;;;;;5004597;28;20538;-59
2023/08/30 02:42:16;;;;;;;11.80;3.45;;;17.00;93.90;;;;;;5004306;28;20067;-60
2023/08/30 02:44:42;;;;;;;10.82;3.33;;;17.00;94.00;;;;;;5004461;28;20034;-60
2023/08/30 02:47:07;;;;;;;10.10;3.85;;;16.90;94.00;;;;;;5004426;28;20036;-60
2023/08/30 02:49:33;;;;;;;9.82;3.10;;;16.90;94.00;;;;;;5004147;28;20082;-59
2023/08/30 02:51:59;;;;;;;11.68;3.58;;;16.90;94.00;;;;;;5004484;28;20031;-60
2023/08/30 02:54:24;;;;;;;13.57;3.17;;;16.90;94.10;;;;;;5004222;28;20050;-60
2023/08/30 02:56:50;;;;;;;8.50;3.10;;;16.90;94.10;;;;;;4988029;28;20027;-60
2023/08/30 02:59:15;;;;;;;10.30;3.55;;;16.90;94.20;;;;;;5004122;28;20057;-60
2023/08/30 03:01:41;;;;;;;8.57;2.90;;;16.80;94.20;;;;;;5004105;28;20030;-60
2023/08/30 03:04:07;;;;;;;6.05;3.03;;;16.80;94.20;;;;;;5004058;28;20026;-60
2023/08/30 03:06:33;;;;;;;10.95;3.47;;;16.90;94.20;;;;;;5004171;28;20038;-60
2023/08/30 03:08:58;;;;;;;5.68;2.65;;;16.80;94.20;;;;;;5004003;28;20037;-60
2023/08/30 03:11:24;;;;;;;9.35;3.05;;;16.80;94.20;;;;;;5003956;28;20027;-60
2023/08/30 03:13:50;;;;;;;8.68;2.60;;;16.80;94.30;;;;;;5004236;28;20024;-60
2023/08/30 03:16:16;;;;;;;5.55;2.50;;;16.90;94.30;;;;;;5005516;28;20041;-60
2023/08/30 03:18:41;;;;;;;7.35;2.50;;;16.90;94.30;;;;;;5003916;28;20035;-60
2023/08/30 03:21:07;;;;;;;9.77;2.83;;;16.80;94.50;;;;;;5003922;28;20048;-60
2023/08/30 03:23:33;;;;;;;6.32;2.70;;;16.80;94.20;;;;;;4987704;28;20077;-60
2023/08/30 03:25:59;;;;;;;7.25;3.10;;;16.80;94.20;;;;;;4987821;28;20045;-60
2023/08/30 03:28:24;;;;;;;6.15;3.05;;;16.80;94.20;;;;;;4987822;28;20062;-60
2023/08/30 03:30:50;;;;;;;8.82;3.13;;;16.80;94.20;;;;;;5005152;28;20023;-60
2023/08/30 03:33:16;;;;;;;13.10;3.45;;;16.80;94.30;;;;;;5004184;28;20089;-60
2023/08/30 03:35:41;;;;;;;10.95;3.47;;;16.80;94.40;;;;;;4987654;28;20065;-60
2023/08/30 03:38:07;;;;;;;5.57;2.97;;;16.80;94.40;;;;;;4987554;28;20050;-60
2023/08/30 03:40:32;;;;;;;6.07;3.15;;;16.80;94.40;;;;;;5003805;28;20023;-60
2023/08/30 03:42:58;;;;;;;7.47;3.00;;;16.80;94.50;;;;;;5005735;28;20070;-60
2023/08/30 03:45:23;;;;;;;5.85;2.67;;;16.80;94.50;;;;;;5007463;28;20105;-60
2023/08/30 03:47:49;;;;;;;9.07;2.53;;;16.80;94.80;;;;;;4991056;28;20035;-60
2023/08/30 03:50:14;;;;;;;8.18;2.80;;;16.80;94.50;;;;;;5007425;28;20062;-60
2023/08/30 03:52:40;;;;;;;6.28;2.50;;;16.80;94.50;;;;;;5008775;28;20042;-60
2023/08/30 03:55:06;;;;;;;5.25;2.20;;;16.80;94.60;;;;;;5007148;28;20113;-60
2023/08/30 03:57:31;;;;;;;4.57;2.40;;;16.80;94.60;;;;;;5007228;28;20042;-60
2023/08/30 03:59:57;;;;;;;4.43;2.25;;;16.80;94.60;;;;;;5008632;28;20117;-60
2023/08/30 04:02:23;;;;;;;6.60;2.72;;;16.90;94.60;;;;;;5006949;28;20034;-60
2023/08/30 04:04:48;;;;;;;7.60;2.53;;;16.80;94.50;;;;;;5008557;28;20041;-60
2023/08/30 04:07:14;;;;;;;4.57;2.42;;;16.80;94.60;;;;;;5008669;28;20034;-60
2023/08/30 04:09:40;;;;;;;6.60;2.45;;;16.80;94.50;;;;;;5008114;28;20026;-60
2023/08/30 04:12:06;;;;;;;7.45;2.55;;;16.80;94.50;;;;;;5008408;28;20026;-60
2023/08/30 04:14:31;;;;;;;7.88;2.58;;;16.80;94.50;;;;;;4990401;28;20030;-60
2023/08/30 04:16:57;;;;;;;3.88;2.60;;;16.80;94.50;;;;;;4990427;28;20065;-60
2023/08/30 04:19:23;;;;;;;6.63;2.13;;;16.80;94.50;;;;;;5006903;28;20486;-60
2023/08/30 04:21:48;;;;;;;5.82;2.20;;;16.80;94.50;;;;;;5008042;28;20109;-60
2023/08/30 04:24:14;;;;;;;5.78;2.50;;;16.80;94.50;;;;;;5008074;28;20038;-60
2023/08/30 04:26:40;;;;;;;6.38;1.92;;;16.80;94.50;;;;;;5007356;28;20076;-60
2023/08/30 04:29:06;;;;;;;3.88;1.90;;;16.70;94.50;;;;;;5006887;28;20034;-60
2023/08/30 04:31:31;;;;;;;7.65;2.42;;;16.80;94.60;;;;;;5007016;28;20031;-60
2023/08/30 04:33:57;;;;;;;5.05;2.97;;;16.70;94.60;;;;;;5006621;28;20042;-60
2023/08/30 04:36:22;;;;;;;4.70;2.47;;;16.70;94.60;;;;;;5004817;28;20042;-60
2023/08/30 04:38:48;;;;;;;8.52;3.13;;;16.80;94.60;;;;;;5006780;28;20049;-60
2023/08/30 04:41:14;;;;;;;4.55;2.58;;;16.70;94.60;;;;;;5006324;28;20031;-60
2023/08/30 04:43:39;;;;;;;4.53;2.50;;;16.80;94.70;;;;;;4988343;28;20022;-60
2023/08/30 04:46:05;;;;;;;3.47;2.20;;;16.70;94.80;;;;;;5005650;28;20109;-60
2023/08/30 04:48:31;;;;;;;7.32;2.90;;;16.80;94.70;;;;;;4987800;28;20026;-60
2023/08/30 04:51:04;;;;;;;3.40;2.35;;;16.80;94.70;;;;;;4987992;28;20384;-63
2023/08/30 04:53:30;;;;;;;5.65;2.53;;;16.70;94.70;;;;;;4970913;28;20030;-60
2023/08/30 04:55:55;;;;;;;10.43;3.05;;;16.70;94.70;;;;;;4987648;28;20026;-60
2023/08/30 04:58:21;;;;;;;6.95;2.95;;;16.70;94.70;;;;;;5005409;28;20065;-60
2023/08/30 05:00:46;;;;;;;5.60;2.25;;;16.70;94.70;;;;;;5007127;28;20058;-60
2023/08/30 05:03:12;;;;;;;4.80;2.05;;;16.70;94.80;;;;;;5007202;28;20035;-60
2023/08/30 05:05:37;;;;;;;4.63;2.63;;;16.70;94.80;;;;;;5005788;28;20029;-60
2023/08/30 05:08:03;;;;;;;3.42;2.50;;;16.70;94.80;;;;;;5005877;28;20042;-60
2023/08/30 05:10:29;;;;;;;4.32;2.35;;;16.70;94.70;;;;;;5007273;28;20022;-63
2023/08/30 05:12:55;;;;;;;4.88;2.38;;;16.70;95.00;;;;;;5005893;28;20121;-63
2023/08/30 05:15:21;;;;;;;4.60;2.20;;;16.70;94.70;;;;;;5005874;28;20467;-63
2023/08/30 05:17:46;;;;;;;3.25;2.38;;;16.70;94.70;;;;;;5005878;28;20115;-63
2023/08/30 05:20:12;;;;;;;3.85;2.40;;;16.70;94.80;;;;;;4989342;28;20035;-63
2023/08/30 05:22:38;;;;;;;5.03;2.40;;;16.70;94.80;;;;;;5005749;28;20034;-63
2023/08/30 05:25:04;;;;;;;3.55;2.40;;;16.60;94.80;;;;;;5007217;28;20057;-60
2023/08/30 05:27:29;;;;;;;4.68;2.42;;;16.70;94.90;;;;;;5005343;28;20050;-60
2023/08/30 05:29:55;;;;;;;5.05;2.47;;;16.70;94.90;;;;;;5005560;28;20459;-60
2023/08/30 05:32:21;;;;;;;3.80;2.47;;;16.70;94.90;;;;;;5005670;28;20026;-60
2023/08/30 05:34:47;;;;;;;4.60;2.30;;;16.70;94.90;;;;;;5006600;28;20054;-60
2023/08/30 05:37:13;;;;;;;3.72;2.08;;;16.70;94.80;;;;;;5005542;28;20027;-60
2023/08/30 05:39:38;;;;;;;4.35;2.30;;;16.70;94.80;;;;;;5005471;28;20049;-60
2023/08/30 05:42:04;;;;;;;5.50;2.35;;;16.70;94.80;;;;;;5005268;28;20058;-60
2023/08/30 05:44:30;;;;;;;5.50;2.10;;;16.70;94.80;;;;;;5005319;28;20056;-60
2023/08/30 05:46:55;;;;;;;6.10;2.20;;;16.70;94.80;;;;;;5005074;28;20030;-60
2023/08/30 05:49:21;;;;;;;5.43;1.80;;;16.70;94.80;;;;;;4988919;28;20065;-60
2023/08/30 05:51:47;;;;;;;3.17;1.92;;;16.70;94.70;;;;;;5005324;28;20027;-60
2023/08/30 05:54:13;;;;;;;4.30;2.25;;;16.70;94.70;;;;;;5004935;28;20026;-60
2023/08/30 05:56:38;;;;;;;3.28;1.90;;;16.70;94.70;;;;;;5006428;28;20510;-60
2023/08/30 05:59:04;;;;;;;3.03;2.53;;;16.80;94.70;;;;;;5004650;28;20034;-60
2023/08/30 06:01:29;;;;;;;5.30;2.30;;;16.80;94.70;;;;;;5005548;28;20070;-60
2023/08/30 06:03:55;;;;;;;3.92;1.77;;;16.80;94.70;;;;;;4981363;28;20027;-60
2023/08/30 06:06:20;;;;;;;5.50;2.35;;;16.80;94.70;;;;;;5002732;28;20064;-60
2023/08/30 06:08:46;;;;;;;5.22;2.22;;;16.70;94.70;;;;;;4997765;28;20042;-60
2023/08/30 06:11:12;;;;;;;3.17;1.73;;;16.80;95.10;;;;;;5004853;28;20066;-60
2023/08/30 06:13:38;;;;;;;3.25;1.90;;;16.80;94.80;;;;;;5004420;28;20089;-60
2023/08/30 06:16:03;;;;;;;5.25;2.28;;;16.80;94.80;;;;;;4979646;28;20034;-60
2023/08/30 06:18:30;;;;;;;3.67;1.83;;;16.80;94.80;;;;;;4984781;28;20391;-60
2023/08/30 06:20:55;;;;;;;3.25;1.92;;;16.80;94.80;;;;;;4986880;28;20041;-60
2023/08/30 06:23:21;;;;;;;3.63;1.88;;;16.80;94.70;;;;;;5003150;28;20031;-60
2023/08/30 06:25:54;;;;;;;4.22;2.22;;;16.80;94.80;;;;;;5000312;28;20045;-60
2023/08/30 06:28:19;;;;;;;6.25;2.05;;;16.80;94.80;;;;;;5002183;28;20459;-60
2023/08/30 06:30:45;;;;;;;3.65;2.03;;;16.80;94.70;;;;;;4993915;28;20061;-56
2023/08/30 06:33:10;;;;;;;7.68;2.10;;;16.80;94.70;;;;;;4988953;28;20035;-55
2023/08/30 06:35:39;;;;;;;5.00;2.15;;;16.80;94.70;;;;;;4997153;28;20370;-55
2023/08/30 06:38:04;;;;;;;5.85;2.10;;;16.80;94.70;;;;;;4994099;28;20050;-55
2023/08/30 06:40:30;;;;;;;7.85;2.25;;;16.80;94.70;;;;;;5000853;28;20554;-55
2023/08/30 06:42:56;;;;;;;6.57;2.22;;;16.80;94.70;;;;;;4999345;28;20058;-57
2023/08/30 06:45:22;;;;;;;10.00;2.60;;;16.80;94.70;;;;;;5000236;28;20030;-54
2023/08/30 06:47:49;;;;;;;9.75;2.30;;;16.80;94.80;;;;;;5000262;28;20353;-54
2023/08/30 06:50:14;;;;;;;7.93;2.67;;;16.80;94.70;;;;;;4982929;28;20031;-55
2023/08/30 06:52:40;;;;;;;5.90;2.83;;;16.80;94.70;;;;;;5000502;28;20033;-55
2023/08/30 06:55:06;;;;;;;10.70;2.55;;;16.80;94.80;;;;;;5000056;28;20045;-55
2023/08/30 06:57:31;;;;;;;10.90;2.60;;;16.80;94.70;;;;;;5000769;28;20030;-55
2023/08/30 06:59:59;;;;;;;28.52;4.20;;;16.90;94.70;;;;;;4996307;28;20126;-55
2023/08/30 07:02:25;;;;;;;17.33;4.32;;;16.90;94.80;;;;;;4997112;28;20038;-55
2023/08/30 07:04:51;;;;;;;25.77;4.57;;;16.90;94.80;;;;;;4996671;28;20403;-54
2023/08/30 07:07:16;;;;;;;33.05;5.45;;;17.00;94.90;;;;;;4998052;28;20042;-54
2023/08/30 07:09:42;;;;;;;72.13;9.85;;;17.00;94.90;;;;;;4995521;28;20517;-55
2023/08/30 07:12:07;;;;;;;49.45;7.30;;;17.00;95.00;;;;;;4996779;28;20062;-55
2023/08/30 07:14:33;;;;;;;33.47;5.80;;;17.00;95.00;;;;;;4998597;28;20658;-55
2023/08/30 07:16:59;;;;;;;71.57;10.02;;;17.00;94.90;;;;;;4999543;28;20034;-55
2023/08/30 07:19:25;;;;;;;69.57;9.60;;;17.00;94.90;;;;;;4985860;28;20030;-55
2023/08/30 07:21:50;;;;;;;63.15;8.07;;;17.00;95.10;;;;;;5003524;28;20114;-55
2023/08/30 07:24:16;;;;;;;72.07;8.85;;;17.10;95.10;;;;;;5003608;28;20026;-55
2023/08/30 07:26:41;;;;;;;74.20;9.82;;;17.00;95.10;;;;;;5001810;28;20031;-55
2023/08/30 07:29:08;;;;;;;68.35;8.20;;;17.10;95.10;;;;;;5000591;28;20030;-55
2023/08/30 07:31:34;;;;;;;47.67;7.50;;;17.10;95.10;;;;;;5004373;28;20049;-55
2023/08/30 07:33:59;;;;;;;52.97;8.07;;;17.10;95.00;;;;;;4999566;28;20026;-55
2023/08/30 07:36:26;;;;;;;57.03;8.52;;;17.10;95.00;;;;;;4997875;28;20038;-55
2023/08/30 07:38:52;;;;;;;53.65;7.75;;;17.10;95.20;;;;;;4985297;28;20030;-55
2023/08/30 07:41:17;;;;;;;61.95;8.43;;;17.10;95.30;;;;;;5003596;28;20109;-55
2023/08/30 07:43:43;;;;;;;49.50;7.28;;;17.20;95.30;;;;;;5007091;28;20045;-55
2023/08/30 07:46:08;;;;;;;51.97;7.28;;;17.20;95.20;;;;;;4995253;28;20806;-55
2023/08/30 07:48:34;;;;;;;56.90;7.20;;;17.20;95.10;;;;;;5002061;28;20034;-55
2023/08/30 07:50:59;;;;;;;49.13;6.70;;;17.20;95.10;;;;;;5005230;28;20034;-55
2023/08/30 07:53:25;;;;;;;41.10;6.93;;;17.20;94.90;;;;;;5013610;28;20109;-55
2023/08/30 07:55:50;;;;;;;33.85;5.72;;;17.20;94.80;;;;;;4977598;28;20061;-55
2023/08/30 07:58:17;;;;;;;31.15;5.95;;;17.20;94.80;;;;;;4989703;28;20027;-55
2023/08/30 08:00:43;;;;;;;44.80;6.38;;;17.30;94.60;;;;;;5006055;28;20057;-54
2023/08/30 08:03:09;;;;;;;28.55;5.68;;;17.30;94.50;;;;;;5007031;28;20030;-55
2023/08/30 08:05:35;;;;;;;40.05;6.05;;;17.30;94.50;;;;;;5007828;28;20034;-55
2023/08/30 08:08:02;;;;;;;42.97;7.45;;;17.30;94.50;;;;;;4997373;28;20050;-55
2023/08/30 08:10:31;;;;;;;63.67;6.65;;;17.30;94.50;;;;;;5006015;28;20014;-54
2023/08/30 08:12:56;;;;;;;43.17;7.25;;;17.40;94.40;;;;;;5001912;28;20034;-54
2023/08/30 08:15:22;;;;;;;62.78;8.10;;;17.40;94.30;;;;;;4987935;28;20465;-57
2023/08/30 08:17:49;;;;;;;67.78;8.10;;;17.40;94.30;;;;;;5002141;28;20494;-57
2023/08/30 08:20:14;;;;;;;40.05;7.50;;;17.40;94.10;;;;;;5002726;28;20030;-56
2023/08/30 08:22:40;;;;;;;59.13;7.68;;;17.40;94.00;;;;;;4999277;28;20094;-58
2023/08/30 08:25:08;;;;;;;65.88;7.97;;;17.50;93.90;;;;;;5002921;28;20061;-57
2023/08/30 08:27:33;;;;;;;70.18;7.78;;;17.50;93.70;;;;;;5002596;28;20139;-57
2023/08/30 08:29:59;;;;;;;89.00;9.77;;;17.50;93.60;;;;;;5000172;28;20892;-57
2023/08/30 08:32:24;;;;;;;75.05;9.75;;;17.50;93.40;;;;;;5004643;28;20454;-56
2023/08/30 08:34:50;;;;;;;59.47;6.55;;;17.50;93.30;;;;;;5002659;28;20026;-55
2023/08/30 08:37:16;;;;;;;54.42;6.57;;;17.50;93.10;;;;;;5002117;28;20494;-55
2023/08/30 08:39:42;;;;;;;40.72;5.43;;;17.50;93.00;;;;;;5004793;28;20129;-55
2023/08/30 08:42:08;;;;;;;42.50;5.53;;;17.50;92.90;;;;;;5006718;28;20037;-55
2023/08/30 08:44:34;;;;;;;55.03;7.03;;;17.60;92.90;;;;;;5005257;28;20098;-56
2023/08/30 08:46:59;;;;;;;63.83;7.40;;;17.60;93.00;;;;;;4994885;28;20058;-55
2023/08/30 08:49:29;;;;;;;63.33;7.35;;;17.60;93.00;;;;;;5003475;28;20026;-55
2023/08/30 08:51:55;;;;;;;68.85;7.20;;;17.60;93.20;;;;;;5003107;28;20023;-55
2023/08/30 08:54:20;;;;;;;62.13;8.27;;;17.70;93.00;;;;;;4987493;28;20387;-56
2023/08/30 08:56:46;;;;;;;70.70;9.65;;;17.70;93.00;;;;;;5004830;28;20034;-55
2023/08/30 08:59:11;;;;;;;55.20;8.48;;;17.60;92.90;;;;;;5004526;28;20041;-55
2023/08/30 09:01:39;;;;;;;62.70;7.07;;;17.70;92.90;;;;;;5001864;28;20424;-56
2023/08/30 09:04:09;;;;;;;61.67;8.80;;;17.70;92.90;;;;;;5005262;28;20030;-55
2023/08/30 09:06:35;;;;;;;64.05;9.15;;;17.70;92.80;;;;;;5004889;28;20030;-55
2023/08/30 09:09:03;;;;;;;79.35;8.73;;;17.70;92.70;;;;;;4986657;28;20030;-55
2023/08/30 09:11:29;;;;;;;66.85;7.63;;;17.70;92.50;;;;;;5000909;28;20034;-55
2023/08/30 09:13:54;;;;;;;62.03;7.97;;;17.80;92.40;;;;;;4972040;28;20041;-55
2023/08/30 09:16:20;;;;;;;67.25;8.75;;;17.80;92.40;;;;;;5020917;28;20054;-55
2023/08/30 09:18:57;;;;;;;68.93;7.85;;;17.80;92.50;;;;;;5003025;28;20041;-56
2023/08/30 09:21:22;;;;;;;71.50;9.77;;;17.80;92.60;;;;;;5001246;28;20065;-56
2023/08/30 09:23:59;;;;;;;84.15;9.20;;;17.80;92.60;;;;;;4992778;28;20018;-56
2023/08/30 09:26:28;;;;;;;73.38;10.30;;;17.80;92.60;;;;;;5000872;28;20042;-59
2023/08/30 09:28:54;;;;;;;84.22;11.18;;;17.90;92.60;;;;;;4988275;28;20026;-55
2023/08/30 09:31:20;;;;;;;79.95;9.40;;;17.90;92.70;;;;;;5004403;28;20022;-56
2023/08/30 09:33:47;;;;;;;156.43;15.52;;;17.90;92.70;;;;;;5004853;28;20041;-55
2023/08/30 09:36:13;;;;;;;131.35;16.75;;;18.00;92.60;;;;;;5003814;28;20041;-55
2023/08/30 09:38:39;;;;;;;107.05;12.30;;;18.00;92.60;;;;;;5004018;28;20034;-55
2023/08/30 09:41:05;;;;;;;115.72;12.40;;;18.00;92.50;;;;;;5003633;28;20027;-56
2023/08/30 09:43:31;;;;;;;73.75;10.30;;;18.00;92.30;;;;;;5004081;28;20030;-57
2023/08/30 09:45:57;;;;;;;65.60;8.10;;;18.00;92.10;;;;;;5003724;28;20057;-57
2023/08/30 09:48:23;;;;;;;78.97;9.38;;;18.10;91.90;;;;;;4987729;28;20328;-57
2023/08/30 09:50:53;;;;;;;70.72;8.30;;;18.10;91.70;;;;;;4985119;28;20034;-55
2023/08/30 09:53:18;;;;;;;69.65;9.85;;;18.10;91.60;;;;;;4971128;28;20026;-55
2023/08/30 09:55:44;;;;;;;71.45;9.15;;;18.20;91.60;;;;;;5003407;28;20370;-55
2023/08/30 09:58:09;;;;;;;77.90;9.73;;;18.20;91.50;;;;;;5003522;28;20125;-55
2023/08/30 10:00:35;;;;;;;109.78;10.63;;;18.20;91.40;;;;;;5001381;28;20037;-55
2023/08/30 10:03:01;;;;;;;84.85;10.45;;;18.20;91.30;;;;;;4986839;28;20105;-57
2023/08/30 10:05:27;;;;;;;59.83;8.13;;;18.30;91.20;;;;;;5002715;28;20092;-55
2023/08/30 10:07:52;;;;;;;61.80;9.00;;;18.30;91.00;;;;;;5000576;28;20030;-55
2023/08/30 10:10:19;;;;;;;51.13;8.48;;;18.30;90.90;;;;;;4990917;28;20022;-56
2023/08/30 10:12:48;;;;;;;92.60;11.68;;;18.30;91.00;;;;;;5003069;28;20097;-55
2023/08/30 10:15:14;;;;;;;98.20;11.25;;;18.40;90.90;;;;;;4986105;28;20122;-55
2023/08/30 10:17:41;;;;;;;80.20;11.82;;;18.40;90.70;;;;;;5002983;28;20042;-54
2023/08/30 10:20:07;;;;;;;84.07;10.85;;;18.50;90.40;;;;;;4986783;28;20083;-55
2023/08/30 10:22:35;;;;;;;117.97;13.27;;;18.40;90.30;;;;;;4986311;28;20042;-55
2023/08/30 10:25:05;;;;;;;94.45;11.45;;;18.50;90.30;;;;;;4986981;28;20026;-55
2023/08/30 10:27:31;;;;;;;103.35;12.05;;;18.50;90.20;;;;;;5002719;28;20030;-55
2023/08/30 10:29:57;;;;;;;94.60;12.00;;;18.50;90.10;;;;;;5002503;28;20037;-55
2023/08/30 10:32:23;;;;;;;91.82;11.15;;;18.60;89.70;;;;;;5001874;28;20030;-55
2023/08/30 10:34:49;;;;;;;77.35;11.30;;;18.60;89.30;;;;;;5002207;28;20053;-61
2023/08/30 10:37:15;;;;;;;114.15;12.23;;;18.60;88.90;;;;;;4969762;28;20125;-61
2023/08/30 10:39:41;;;;;;;99.35;14.32;;;18.70;88.50;;;;;;5002597;28;20045;-61
2023/08/30 10:42:13;;;;;;;89.07;12.73;;;18.70;88.10;;;;;;5002100;28;20030;-62
2023/08/30 10:44:52;;;;;;;85.93;11.27;;;18.70;88.00;;;;;;5001416;28;20022;-61
2023/08/30 10:47:30;;;;;;;65.90;9.50;;;18.80;87.80;;;;;;5000817;28;20042;-61
2023/08/30 10:49:57;;;;;;;75.10;11.38;;;18.80;87.10;;;;;;4987949;28;20027;-61
2023/08/30 10:52:23;;;;;;;73.82;9.73;;;18.80;87.20;;;;;;5000522;28;20198;-61
2023/08/30 10:54:50;;;;;;;97.50;11.65;;;18.80;86.80;;;;;;5003171;28;20332;-61
2023/08/30 10:57:19;;;;;;;81.75;10.70;;;18.90;86.70;;;;;;4994485;28;20122;-62
2023/08/30 11:00:09;;;;;;;74.15;9.45;;;18.90;86.60;;;;;;4986192;28;20529;-62
2023/08/30 11:02:35;;;;;;;73.93;10.77;;;18.90;86.10;;;;;;4984827;28;20050;-62
2023/08/30 11:05:02;;;;;;;62.30;8.10;;;18.90;86.20;;;;;;4990942;28;20027;-61
2023/08/30 11:07:27;;;;;;;77.00;10.05;;;18.90;86.60;;;;;;4993635;28;20030;-62
2023/08/30 11:09:53;;;;;;;85.72;10.88;;;19.00;86.20;;;;;;4985301;28;20033;-61
2023/08/30 11:12:22;;;;;;;101.70;12.88;;;19.00;85.90;;;;;;4986354;28;20031;-62
2023/08/30 11:14:48;;;;;;;68.00;10.35;;;19.00;86.00;;;;;;4983576;28;20034;-61
2023/08/30 11:17:16;;;;;;;70.43;9.95;;;19.00;85.90;;;;;;4986077;28;20051;-63
2023/08/30 11:19:42;;;;;;;98.25;12.55;;;19.00;85.90;;;;;;4983238;28;20043;-61
2023/08/30 11:22:08;;;;;;;76.75;10.27;;;19.10;85.40;;;;;;4985168;28;20169;-62
2023/08/30 11:24:34;;;;;;;62.53;7.75;;;19.10;85.00;;;;;;4985404;28;20035;-61
2023/08/30 11:27:00;;;;;;;71.57;8.68;;;19.20;85.20;;;;;;4992857;28;20053;-62
2023/08/30 11:29:26;;;;;;;69.20;8.90;;;19.20;85.30;;;;;;4977364;28;20038;-61
2023/08/30 11:31:52;;;;;;;68.47;7.93;;;19.20;84.60;;;;;;4998215;28;20053;-61
2023/08/30 11:34:21;;;;;;;54.20;8.13;;;19.30;84.60;;;;;;4998085;28;20019;-61
2023/08/30 11:36:47;;;;;;;60.33;8.98;;;19.30;84.20;;;;;;4999700;28;20057;-61
2023/08/30 11:39:13;;;;;;;40.20;6.75;;;19.40;84.00;;;;;;4984388;28;20026;-62
2023/08/30 11:41:39;;;;;;;43.65;7.03;;;19.40;83.90;;;;;;5004666;28;20193;-59
2023/08/30 11:44:05;;;;;;;65.28;8.13;;;19.50;83.80;;;;;;4984410;28;20062;-59
2023/08/30 11:46:31;;;;;;;62.35;7.70;;;19.50;83.60;;;;;;4996139;28;20035;-62
2023/08/30 11:48:57;;;;;;;63.58;8.75;;;19.60;83.40;;;;;;4998130;28;20035;-62
2023/08/30 11:51:22;;;;;;;50.10;9.38;;;19.60;83.20;;;;;;4995082;28;20118;-61
2023/08/30 11:53:49;;;;;;;67.05;9.23;;;19.70;83.00;;;;;;4993504;28;20034;-62
2023/08/30 11:56:14;;;;;;;75.93;9.57;;;19.70;82.90;;;;;;4990150;28;20100;-62
2023/08/30 11:58:40;;;;;;;56.38;8.60;;;19.80;82.80;;;;;;4994882;28;20046;-60
2023/08/30 12:01:07;;;;;;;97.25;10.38;;;19.90;82.50;;;;;;4998129;28;20049;-62
2023/08/30 12:03:32;;;;;;;80.90;10.65;;;19.90;81.80;;;;;;4977484;28;20378;-60
2023/08/30 12:05:58;;;;;;;78.07;11.10;;;19.90;81.30;;;;;;5002745;28;20074;-62
2023/08/30 12:08:28;;;;;;;95.10;12.73;;;20.00;81.60;;;;;;4989184;28;20027;-62
2023/08/30 12:10:54;;;;;;;77.00;11.07;;;20.10;81.50;;;;;;4999546;28;20053;-62
2023/08/30 12:13:29;;;;;;;79.03;10.85;;;20.10;81.00;;;;;;5005147;28;20147;-61
2023/08/30 12:15:55;;;;;;;;;;;20.20;81.10;;;;;;5001636;28;20026;-62
2023/08/30 12:18:27;;;;;;;66.82;9.35;;;20.20;80.80;;;;;;5004105;28;19918;-61
2023/08/30 12:20:57;;;;;;;87.35;12.02;;;20.30;80.70;;;;;;5001802;28;20042;-61
2023/08/30 12:23:29;;;;;;;92.80;12.15;;;20.30;80.50;;;;;;5004622;28;20034;-59
2023/08/30 12:26:05;;;;;;;117.97;14.27;;;20.30;80.50;;;;;;4989218;28;20026;-60
2023/08/30 12:28:38;;;;;;;114.70;13.10;;;20.40;80.60;;;;;;4993107;28;20030;-59
2023/08/30 12:31:04;;;;;;;140.50;15.82;;;20.40;80.60;;;;;;5000432;28;20038;-59
2023/08/30 12:33:30;;;;;;;103.60;13.43;;;20.50;80.70;;;;;;4999531;28;20450;-59
2023/08/30 12:35:56;;;;;;;102.57;11.93;;;20.50;80.50;;;;;;4996428;28;20026;-59